Time;durP1;ratioP1;P1;durP2;ratioP2;P2;SDS_P1;SDS_P2;PMS_P1;PMS_P2;Temp;Humidity;BMP_temperature;BMP_pressure;BME280_temperature;BME280_humidity;BME280_pressure;Samples;Min_cycle;Max_cycle;Signal;HPM_P1;HPM_P2
2022/01/11 00:01:04;;;;;;;27.33;15.38;;;;;;;17.74;29.49;102572.25;2078915;28;20404;-69
2022/01/11 00:02:09;;;;;;;22.13;14.77;;;;;;;17.76;29.87;102574.66;2077239;28;20044;-70
2022/01/11 00:03:17;;;;;;;32.67;22.40;;;;;;;17.76;29.85;102580.94;2077642;28;20057;-68
2022/01/11 00:04:28;;;;;;;;;;;;;;;17.78;29.92;102581.47;2078367;28;20496;-69
2022/01/11 00:05:38;;;;;;;24.55;16.02;;;;;;;17.85;29.94;102580.25;2077612;28;20424;-69
2022/01/11 00:06:45;;;;;;;;;;;;;;;17.94;30.20;102582.00;2078388;28;20080;-69
2022/01/11 00:07:49;;;;;;;22.17;14.63;;;;;;;17.98;29.87;102583.03;2077725;28;20312;-71
2022/01/11 00:09:00;;;;;;;27.63;16.38;;;;;;;17.97;29.49;102581.41;2078155;28;20068;-69
2022/01/11 00:10:07;;;;;;;22.92;15.70;;;;;;;17.91;29.74;102582.59;2078369;28;20041;-71
2022/01/11 00:11:11;;;;;;;26.58;14.85;;;;;;;17.91;29.92;102582.59;2077994;28;20496;-71
2022/01/11 00:12:16;;;;;;;23.27;14.50;;;;;;;17.93;29.83;102579.56;2078605;28;20087;-70
2022/01/11 00:13:23;;;;;;;28.73;13.98;;;;;;;17.94;29.69;102584.75;2078938;28;20060;-70
2022/01/11 00:14:28;;;;;;;22.05;13.82;;;;;;;17.95;29.53;102578.16;2079167;28;20366;-69
2022/01/11 00:15:34;;;;;;;21.95;13.65;;;;;;;17.93;29.73;102585.88;2078640;28;20061;-70
2022/01/11 00:16:37;;;;;;;21.70;14.60;;;;;;;17.91;29.75;102579.88;2078575;28;20065;-70
2022/01/11 00:17:43;;;;;;;21.48;13.10;;;;;;;17.96;29.92;102587.97;2078284;28;20053;-70
2022/01/11 00:18:48;;;;;;;20.80;12.50;;;;;;;17.93;29.59;102585.88;2078371;28;20760;-70
2022/01/11 00:19:51;;;;;;;19.02;12.30;;;;;;;17.97;29.86;102592.34;2077736;28;20060;-67
2022/01/11 00:20:57;;;;;;;20.10;12.65;;;;;;;18.02;29.86;102585.97;2077803;28;20524;-68
2022/01/11 00:22:07;;;;;;;20.10;12.02;;;;;;;18.05;29.58;102583.44;2078466;28;20054;-67
2022/01/11 00:24:33;;;;;;;23.42;12.30;;;;;;;17.99;29.36;102590.09;2078232;28;20466;-67
2022/01/11 00:25:38;;;;;;;22.23;12.10;;;;;;;17.96;29.49;102585.25;2077112;28;20046;-67
2022/01/11 00:28:01;;;;;;;21.88;11.80;;;;;;;18.05;29.46;102588.91;2078120;28;20044;-69
2022/01/11 00:29:09;;;;;;;20.65;12.18;;;;;;;18.02;29.22;102594.97;2077557;28;20468;-68
2022/01/11 00:42:11;;;;;;;18.52;11.38;;;;;;;18.03;29.12;102601.28;2082546;28;20033;-69
2022/01/11 00:43:16;;;;;;;20.13;12.13;;;;;;;17.98;29.39;102604.91;2078763;28;20053;-69
2022/01/11 00:44:23;;;;;;;17.60;11.48;;;;;;;17.96;29.48;102606.31;2078755;28;20037;-70
2022/01/11 00:45:28;;;;;;;18.25;11.27;;;;;;;17.92;29.59;102605.28;2079381;28;20049;-69
2022/01/11 00:46:32;;;;;;;16.80;11.10;;;;;;;17.88;29.58;102610.53;2078977;28;20061;-71
2022/01/11 00:47:35;;;;;;;16.83;10.45;;;;;;;17.89;29.69;102606.69;2079716;28;20060;-69
2022/01/11 00:48:41;;;;;;;18.05;9.88;;;;;;;17.86;29.53;102607.28;2086828;28;20076;-66
2022/01/11 00:49:45;;;;;;;16.63;10.85;;;;;;;17.85;29.74;102611.16;2071367;28;20054;-69
2022/01/11 00:52:10;;;;;;;15.93;10.52;;;;;;;17.92;29.58;102617.03;2073523;28;20077;-70
2022/01/11 00:53:14;;;;;;;18.42;10.75;;;;;;;17.94;29.40;102609.34;2079973;28;20049;-71
2022/01/11 00:54:19;;;;;;;17.10;9.98;;;;;;;17.93;29.61;102607.75;2086843;28;20680;-72
2022/01/11 00:55:24;;;;;;;19.42;10.98;;;;;;;17.90;29.07;102608.34;2087612;28;20049;-70
2022/01/11 00:56:29;;;;;;;17.33;10.45;;;;;;;17.87;29.41;102611.66;2087829;28;20056;-71
2022/01/11 00:57:32;;;;;;;17.98;10.90;;;;;;;17.85;29.29;102610.34;2088601;28;20041;-72
2022/01/11 00:58:37;;;;;;;18.92;11.98;;;;;;;17.81;29.61;102599.19;2088210;28;20049;-72
2022/01/11 00:59:44;;;;;;;17.90;10.88;;;;;;;17.78;29.41;102610.72;2087951;28;20046;-67
2022/01/11 01:00:50;;;;;;;18.35;10.20;;;;;;;17.79;29.63;102601.41;2087773;28;20053;-64
2022/01/11 01:01:53;;;;;;;19.65;10.60;;;;;;;17.84;29.49;102598.59;2087056;28;20140;-63
2022/01/11 01:02:58;;;;;;;1.25;0.85;;;;;;;17.83;29.93;102597.75;2087631;28;20067;-67
2022/01/11 01:04:06;;;;;;;3.47;1.50;;;;;;;17.95;29.61;102600.03;2087864;28;20044;-67
2022/01/11 01:05:09;;;;;;;4.55;1.63;;;;;;;18.18;29.21;102608.38;2087616;28;20066;-64
2022/01/11 01:06:14;;;;;;;3.72;2.15;;;;;;;18.42;28.94;102603.59;2086764;28;20049;-65
2022/01/11 01:07:20;;;;;;;13.50;7.70;;;;;;;18.75;28.67;102600.78;2086669;28;20088;-66
2022/01/11 01:08:26;;;;;;;17.52;9.25;;;;;;;18.80;28.41;102597.13;2086858;28;20049;-65
2022/01/11 01:09:38;;;;;;;18.60;10.13;;;;;;;18.67;28.59;102604.25;2086580;28;20048;-65
2022/01/11 01:10:46;;;;;;;17.80;9.88;;;;;;;18.48;28.64;102601.59;2079952;28;20527;-65
2022/01/11 01:11:51;;;;;;;14.85;9.30;;;;;;;18.25;28.89;102603.38;2079580;28;20061;-65
2022/01/11 01:12:56;;;;;;;16.40;9.45;;;;;;;18.10;29.32;102611.84;2086702;28;20049;-65
2022/01/11 01:14:01;;;;;;;16.13;10.23;;;;;;;18.04;29.33;102614.66;2079379;28;20060;-64
2022/01/11 01:15:10;;;;;;;17.20;9.77;;;;;;;18.00;29.69;102610.91;2087361;28;20049;-65
2022/01/11 01:16:16;;;;;;;18.10;9.90;;;;;;;17.95;29.49;102610.16;2087223;28;20546;-65
2022/01/11 01:17:35;;;;;;;19.65;11.63;;;;;;;17.83;29.58;102607.88;2087028;28;20061;-66
2022/01/11 01:18:41;;;;;;;17.38;10.30;;;;;;;17.79;29.82;102606.88;2086595;28;20064;-65
2022/01/11 01:19:45;;;;;;;26.88;14.80;;;;;;;17.75;30.10;102608.59;2079152;28;20053;-66
2022/01/11 01:20:50;;;;;;;19.25;11.30;;;;;;;17.75;29.74;102612.13;2078797;28;20555;-65
2022/01/11 01:21:54;;;;;;;19.55;12.15;;;;;;;17.75;29.99;102611.31;2079170;28;20062;-65
2022/01/11 01:22:59;;;;;;;22.48;14.13;;;;;;;17.68;29.67;102619.06;2079435;28;20050;-66
2022/01/11 01:24:02;;;;;;;9.40;4.80;;;;;;;17.65;30.23;102620.50;2086721;28;20033;-67
2022/01/11 01:25:11;;;;;;;11.15;6.00;;;;;;;17.70;30.30;102617.66;2086668;28;20052;-67
2022/01/11 01:26:19;;;;;;;12.02;5.47;;;;;;;17.64;29.72;102615.31;2087005;28;20496;-67
2022/01/11 01:27:24;;;;;;;10.23;5.40;;;;;;;17.64;29.95;102620.78;2087054;28;20100;-67
2022/01/11 01:28:28;;;;;;;12.07;5.43;;;;;;;17.52;30.40;102599.34;2087075;28;20057;-67
2022/01/11 01:29:33;;;;;;;14.13;6.20;;;;;;;17.55;30.37;102624.19;2087507;28;20052;-66
2022/01/11 01:30:42;;;;;;;11.95;5.85;;;;;;;17.55;30.25;102618.72;2078646;28;20062;-66
2022/01/11 01:31:45;;;;;;;15.40;6.15;;;;;;;17.57;30.53;102621.94;2087453;28;20041;-66
2022/01/11 01:32:51;;;;;;;10.20;5.75;;;;;;;17.57;30.12;102630.16;2086671;28;20497;-66
2022/01/11 01:33:55;;;;;;;13.95;8.27;;;;;;;17.58;30.58;102623.56;2086363;28;20052;-67
2022/01/11 01:35:04;;;;;;;15.00;8.80;;;;;;;17.59;30.69;102613.47;2087613;28;20061;-66
2022/01/11 01:36:11;;;;;;;13.82;8.23;;;;;;;17.59;30.58;102617.00;2086562;28;20633;-67
2022/01/11 01:37:16;;;;;;;19.17;8.85;;;;;;;17.62;30.60;102612.03;2079430;28;20049;-66
2022/01/11 01:38:23;;;;;;;16.13;8.70;;;;;;;17.52;30.46;102613.84;2086854;28;20175;-66
2022/01/11 01:39:26;;;;;;;18.42;10.20;;;;;;;17.52;30.67;102618.47;2079386;28;20559;-66
2022/01/11 01:40:37;;;;;;;14.82;9.23;;;;;;;17.52;30.70;102613.84;2078844;28;20157;-66
2022/01/11 01:41:43;;;;;;;18.95;11.55;;;;;;;17.52;30.71;102622.03;2079723;28;20045;-66
2022/01/11 01:42:49;;;;;;;18.48;10.65;;;;;;;17.45;30.42;102621.56;2086573;28;20061;-66
2022/01/11 01:43:55;;;;;;;14.05;9.10;;;;;;;17.41;30.78;102626.00;2086445;28;20049;-65
2022/01/11 01:45:02;;;;;;;17.65;10.27;;;;;;;17.35;30.94;102621.69;2078563;28;20060;-65
2022/01/11 01:46:08;;;;;;;19.52;10.98;;;;;;;17.38;31.12;102623.84;2086719;28;20051;-66
2022/01/11 01:47:14;;;;;;;16.05;8.80;;;;;;;17.38;30.80;102630.13;2086349;28;20111;-66
2022/01/11 01:48:17;;;;;;;16.98;9.60;;;;;;;17.42;30.85;102630.34;2079035;28;20478;-65
2022/01/11 01:49:23;;;;;;;16.20;9.45;;;;;;;17.43;30.73;102621.06;2086843;28;20064;-66
2022/01/11 01:50:30;;;;;;;17.02;9.40;;;;;;;17.38;30.92;102629.31;2087146;28;20497;-66
2022/01/11 01:51:35;;;;;;;15.65;8.10;;;;;;;17.36;30.98;102631.50;2078346;28;20049;-65
2022/01/11 01:52:39;;;;;;;17.40;9.50;;;;;;;17.34;30.98;102633.75;2086648;28;20041;-66
2022/01/11 01:53:46;;;;;;;17.92;10.05;;;;;;;17.38;30.87;102627.38;2086564;28;20059;-66
2022/01/11 01:54:52;;;;;;;15.18;9.32;;;;;;;17.42;30.78;102624.06;2079544;28;20057;-68
2022/01/11 01:55:58;;;;;;;17.00;9.25;;;;;;;17.48;31.00;102625.63;2079059;28;20056;-66
2022/01/11 01:57:01;;;;;;;8.13;5.32;;;;;;;17.49;30.78;102616.31;2079331;28;20529;-65
2022/01/11 01:58:06;;;;;;;10.15;4.80;;;;;;;17.52;30.61;102622.03;2078566;28;20060;-63
2022/01/11 01:59:09;;;;;;;16.90;10.52;;;;;;;17.58;30.72;102628.22;2078567;28;20560;-62
2022/01/11 02:00:16;;;;;;;21.92;14.88;;;;;;;17.55;30.40;102620.63;2078641;28;20049;-62
2022/01/11 02:01:22;;;;;;;13.82;9.55;;;;;;;17.53;30.54;102617.38;2086750;28;20049;-63
2022/01/11 02:02:29;;;;;;;17.38;10.57;;;;;;;17.51;30.75;102623.13;2087069;28;20488;-63
2022/01/11 02:03:40;;;;;;;21.77;13.57;;;;;;;17.47;30.50;102621.28;2086843;28;20064;-62
2022/01/11 02:04:47;;;;;;;16.30;10.65;;;;;;;17.41;30.66;102617.00;2079250;28;20053;-63
2022/01/11 02:05:49;;;;;;;17.98;11.15;;;;;;;17.43;30.86;102621.06;2085858;28;20729;-63
2022/01/11 02:06:54;;;;;;;20.25;10.80;;;;;;;17.40;30.45;102621.66;2087002;28;20064;-62
2022/01/11 02:08:00;;;;;;;14.52;9.38;;;;;;;17.43;30.57;102623.78;2079098;28;20045;-62
2022/01/11 02:09:04;;;;;;;20.85;13.60;;;;;;;17.42;30.50;102629.53;2078108;28;20053;-63
2022/01/11 02:10:10;;;;;;;16.70;10.30;;;;;;;17.34;30.66;102622.81;2086168;28;20053;-62
2022/01/11 02:11:17;;;;;;;15.50;10.13;;;;;;;17.29;30.74;102620.16;2078997;28;20504;-62
2022/01/11 02:12:24;;;;;;;15.55;9.75;;;;;;;17.29;30.84;102623.69;2079338;28;20053;-61
2022/01/11 02:14:52;;;;;;;14.60;9.50;;;;;;;17.17;30.75;102622.50;2086846;28;20045;-62
2022/01/11 02:15:55;;;;;;;16.70;11.15;;;;;;;17.14;30.96;102619.25;2086251;28;20064;-61
2022/01/11 02:17:05;;;;;;;16.08;10.50;;;;;;;17.16;31.13;102623.59;2078110;28;20048;-61
2022/01/11 02:18:10;;;;;;;13.88;9.73;;;;;;;17.19;31.04;102628.47;2078956;28;20053;-60
2022/01/11 02:19:16;;;;;;;15.57;10.38;;;;;;;17.16;30.78;102626.34;2078779;28;20060;-61
2022/01/11 02:20:23;;;;;;;16.45;10.25;;;;;;;17.09;31.22;102632.97;2078553;28;20053;-61
2022/01/11 02:21:27;;;;;;;15.55;9.80;;;;;;;17.07;31.16;102634.38;2086663;28;20144;-62
2022/01/11 02:22:34;;;;;;;15.55;11.40;;;;;;;17.07;31.18;102635.16;2086367;28;20113;-61
2022/01/11 02:23:40;;;;;;;16.45;9.65;;;;;;;17.11;31.42;102630.78;2079067;28;20049;-61
2022/01/11 02:24:44;;;;;;;16.85;9.48;;;;;;;17.14;31.23;102635.66;2078877;28;20088;-60
2022/01/11 02:25:50;;;;;;;19.02;10.93;;;;;;;17.14;31.03;102630.19;2078590;28;20057;-62
2022/01/11 02:26:53;;;;;;;16.42;10.43;;;;;;;17.18;31.38;102629.59;2078166;28;20043;-62
2022/01/11 02:27:58;;;;;;;17.35;11.68;;;;;;;17.13;31.41;102625.81;2078475;28;20057;-62
2022/01/11 02:29:02;;;;;;;18.48;12.45;;;;;;;17.09;31.17;102634.91;2078481;28;20053;-62
2022/01/11 02:30:08;;;;;;;17.83;11.75;;;;;;;17.05;31.53;102631.94;2078530;28;20054;-62
2022/01/11 02:31:12;;;;;;;14.95;11.32;;;;;;;17.07;31.13;102628.91;2078364;28;20053;-62
2022/01/11 02:32:20;;;;;;;15.75;10.23;;;;;;;17.07;31.49;102629.72;2085954;28;20056;-62
2022/01/11 02:33:32;;;;;;;18.30;12.63;;;;;;;17.08;31.33;102622.31;2086085;28;20559;-62
2022/01/11 02:34:55;;;;;;;16.83;10.55;;;;;;;17.05;31.27;102626.47;2081343;28;20057;-62
2022/01/11 02:36:06;;;;;;;13.27;9.85;;;;;;;17.03;31.53;102634.13;2086407;28;20045;-62
2022/01/11 02:37:11;;;;;;;17.58;12.38;;;;;;;17.01;31.68;102630.88;2086060;28;20072;-61
2022/01/11 02:38:20;;;;;;;17.15;11.13;;;;;;;17.02;31.47;102627.06;2086151;28;20523;-61
2022/01/11 02:39:25;;;;;;;16.77;11.23;;;;;;;17.03;31.58;102625.94;2086196;28;20115;-61
2022/01/11 02:40:37;;;;;;;14.63;10.18;;;;;;;17.04;31.40;102630.28;2079593;28;20053;-62
2022/01/11 02:41:50;;;;;;;20.52;13.32;;;;;;;17.04;31.46;102624.84;2078147;28;20401;-62
2022/01/11 02:42:59;;;;;;;19.02;11.60;;;;;;;17.08;31.41;102634.09;2080250;28;20163;-62
2022/01/11 02:44:10;;;;;;;16.08;9.80;;;;;;;17.10;31.50;102625.59;2079221;28;20544;-62
2022/01/11 02:45:21;;;;;;;14.38;10.00;;;;;;;17.14;31.55;102635.66;2079332;28;20671;-62
2022/01/11 02:46:27;;;;;;;14.45;9.50;;;;;;;17.12;31.16;102629.66;2079151;28;20646;-61
2022/01/11 02:47:33;;;;;;;13.50;9.45;;;;;;;17.17;31.51;102627.94;2086133;28;20118;-61
2022/01/11 02:48:37;;;;;;;13.32;9.05;;;;;;;17.19;31.12;102628.47;2078881;28;20382;-61
2022/01/11 02:49:42;;;;;;;13.68;8.93;;;;;;;17.16;31.20;102632.59;2078276;28;20406;-61
2022/01/11 02:51:10;;;;;;;12.98;9.23;;;;;;;17.07;31.25;102635.16;2086602;28;20048;-61
2022/01/11 02:52:13;;;;;;;18.15;11.65;;;;;;;17.02;31.30;102637.97;2086322;28;20063;-62
2022/01/11 02:53:21;;;;;;;17.17;11.52;;;;;;;16.94;31.22;102635.06;2078864;28;20053;-61
2022/01/11 02:54:31;;;;;;;31.40;20.38;;;;;;;16.95;31.57;102632.03;2078189;28;20053;-62
2022/01/11 02:55:51;;;;;;;17.42;11.50;;;;;;;16.94;31.07;102629.63;2072514;28;20053;-62
2022/01/11 02:56:55;;;;;;;23.65;17.35;;;;;;;16.93;31.75;102628.81;2069160;28;20049;-62
2022/01/11 02:57:59;;;;;;;20.25;13.48;;;;;;;16.97;31.64;102629.03;2070017;28;20057;-62
2022/01/11 02:59:07;;;;;;;17.33;11.30;;;;;;;17.00;31.64;102634.72;2078000;28;20053;-64
2022/01/11 03:00:13;;;;;;;17.63;11.32;;;;;;;16.99;31.68;102627.63;2077923;28;20056;-62
2022/01/11 03:01:18;;;;;;;15.10;10.55;;;;;;;17.03;31.62;102633.31;2069998;28;20057;-62
2022/01/11 03:02:25;;;;;;;16.33;9.98;;;;;;;17.13;31.78;102631.28;2078981;28;20057;-62
2022/01/11 03:03:31;;;;;;;15.45;10.45;;;;;;;17.12;30.89;102632.38;2077590;28;20052;-62
2022/01/11 03:04:33;;;;;;;14.80;9.85;;;;;;;17.10;31.58;102628.31;2069386;28;20076;-63
2022/01/11 03:05:46;;;;;;;15.27;10.45;;;;;;;17.05;31.22;102626.47;2078087;28;20049;-62
2022/01/11 03:06:58;;;;;;;14.73;10.43;;;;;;;17.07;31.48;102623.44;2077425;28;20093;-63
2022/01/11 03:08:08;;;;;;;14.57;9.82;;;;;;;17.08;31.81;102631.34;2070579;28;20050;-62
2022/01/11 03:09:15;;;;;;;14.02;8.98;;;;;;;17.07;31.76;102629.72;2078146;28;20531;-63
2022/01/11 03:10:29;;;;;;;15.57;10.65;;;;;;;17.04;31.66;102627.56;2078010;28;20054;-62
2022/01/11 03:11:33;;;;;;;;;;;;;;;17.09;31.62;102626.69;2071056;28;20056;-63
2022/01/11 03:12:36;;;;;;;16.73;11.50;;;;;;;17.08;31.50;102620.44;2070638;28;19921;-62
2022/01/11 03:13:43;;;;;;;14.52;9.85;;;;;;;17.12;31.53;102626.94;2069456;28;20061;-62
2022/01/11 03:14:47;;;;;;;15.93;9.48;;;;;;;17.16;31.54;102624.41;2078513;28;20821;-62
2022/01/11 03:15:55;;;;;;;16.92;11.18;;;;;;;17.17;31.44;102630.69;2077833;28;20053;-61
2022/01/11 03:17:05;;;;;;;16.55;10.60;;;;;;;17.17;31.51;102633.41;2070000;28;20046;-62
2022/01/11 03:18:15;;;;;;;14.32;9.95;;;;;;;17.17;31.33;102627.94;2077670;28;20604;-62
2022/01/11 03:19:23;;;;;;;14.38;9.52;;;;;;;17.16;31.47;102632.59;2078357;28;20054;-62
2022/01/11 03:20:27;;;;;;;13.77;9.70;;;;;;;17.18;31.56;102626.88;2077859;28;20061;-62
2022/01/11 03:21:32;;;;;;;15.88;11.00;;;;;;;17.23;31.18;102626.78;2070131;28;20054;-62
2022/01/11 03:22:38;;;;;;;14.98;11.90;;;;;;;17.27;31.46;102627.81;2070730;28;20139;-63
2022/01/11 03:23:46;;;;;;;15.27;10.38;;;;;;;17.25;31.34;102632.78;2081943;28;20045;-62
2022/01/11 03:24:53;;;;;;;18.23;11.90;;;;;;;17.17;31.52;102627.94;2078890;28;20045;-61
2022/01/11 03:26:01;;;;;;;15.27;10.00;;;;;;;17.17;31.80;102631.50;2078261;28;20056;-62
2022/01/11 03:27:06;;;;;;;13.20;9.40;;;;;;;17.16;31.69;102631.81;2078615;28;20528;-62
2022/01/11 03:28:11;;;;;;;17.48;10.55;;;;;;;17.14;31.70;102629.34;2085819;28;20053;-61
2022/01/11 03:29:14;;;;;;;21.08;12.57;;;;;;;17.16;31.81;102642.72;2085784;28;20040;-61
2022/01/11 03:30:18;;;;;;;16.08;9.82;;;;;;;17.12;31.50;102629.66;2086762;28;20049;-61
2022/01/11 03:31:30;;;;;;;18.90;13.38;;;;;;;17.18;31.62;102641.34;2085631;28;20332;-61
2022/01/11 03:32:34;;;;;;;19.55;13.07;;;;;;;17.21;31.62;102639.91;2078268;28;20084;-62
2022/01/11 03:33:39;;;;;;;21.60;16.23;;;;;;;17.21;31.37;102639.91;2086206;28;20800;-61
2022/01/11 03:34:45;;;;;;;22.00;17.95;;;;;;;17.20;31.45;102644.56;2086374;28;20555;-63
2022/01/11 03:35:52;;;;;;;19.80;13.30;;;;;;;17.22;31.50;102645.09;2078642;28;20056;-63
2022/01/11 03:36:57;;;;;;;19.25;12.43;;;;;;;17.19;31.42;102647.59;2078113;28;20048;-63
2022/01/11 03:38:08;;;;;;;15.50;10.98;;;;;;;17.19;31.86;102653.06;2085631;28;20651;-64
2022/01/11 03:39:15;;;;;;;23.67;10.65;;;;;;;17.17;31.64;102656.06;2086427;28;20493;-63
2022/01/11 03:40:19;;;;;;;16.27;10.23;;;;;;;17.12;31.77;102653.44;2085758;28;20112;-63
2022/01/11 03:41:25;;;;;;;13.10;9.68;;;;;;;17.12;31.50;102650.69;2086087;28;20040;-61
2022/01/11 03:42:30;;;;;;;13.38;8.95;;;;;;;17.16;31.88;102648.19;2078134;28;20050;-65
2022/01/11 03:43:38;;;;;;;13.75;8.20;;;;;;;17.17;31.60;102649.81;2078623;28;20104;-66
2022/01/11 03:44:44;;;;;;;14.85;8.63;;;;;;;17.24;31.55;102645.63;2078685;28;20116;-65
2022/01/11 03:45:50;;;;;;;16.50;9.13;;;;;;;17.27;31.23;102655.13;2078001;28;20061;-65
2022/01/11 03:46:55;;;;;;;12.93;9.23;;;;;;;17.24;31.33;102645.63;2078884;28;20497;-63
2022/01/11 03:48:01;;;;;;;13.52;8.48;;;;;;;17.25;31.12;102647.25;2077164;28;20060;-65
2022/01/11 03:49:11;;;;;;;13.10;9.63;;;;;;;17.21;31.05;102645.38;2085860;28;20057;-66
2022/01/11 03:50:16;;;;;;;15.15;9.13;;;;;;;17.13;31.87;102646.84;2078231;28;20049;-65
2022/01/11 03:51:21;;;;;;;12.50;8.88;;;;;;;17.18;31.63;102646.00;2085455;28;20053;-65
2022/01/11 03:52:30;;;;;;;15.15;9.95;;;;;;;17.19;31.53;102648.41;2085769;28;20053;-65
2022/01/11 03:53:50;;;;;;;19.63;12.23;;;;;;;17.20;31.92;102649.22;2078063;28;20434;-65
2022/01/11 03:55:03;;;;;;;20.25;10.82;;;;;;;17.17;31.63;102636.16;2080161;28;20053;-64
2022/01/11 03:56:22;;;;;;;14.77;9.93;;;;;;;17.22;31.91;102645.09;2079851;28;20045;-65
2022/01/11 03:57:34;;;;;;;13.63;8.63;;;;;;;17.20;31.50;102635.56;2085365;28;20060;-65
2022/01/11 03:58:39;;;;;;;17.55;12.52;;;;;;;17.16;31.55;102642.72;2078145;28;20045;-64
2022/01/11 03:59:42;;;;;;;12.48;8.60;;;;;;;17.17;31.56;102644.34;2078551;28;20635;-65
2022/01/11 04:00:47;;;;;;;15.60;8.20;;;;;;;17.15;31.62;102636.44;2078078;28;20135;-64
2022/01/11 04:01:53;;;;;;;13.57;8.20;;;;;;;17.13;31.73;102634.00;2077797;28;20057;-64
2022/01/11 04:02:56;;;;;;;14.85;8.55;;;;;;;17.08;31.59;102642.28;2078200;28;20037;-64
2022/01/11 04:04:00;;;;;;;13.25;7.90;;;;;;;17.06;31.88;102638.22;2078167;28;20052;-64
2022/01/11 04:05:06;;;;;;;12.70;8.18;;;;;;;17.02;31.84;102640.72;2085847;28;20517;-64
2022/01/11 04:06:10;;;;;;;12.98;8.05;;;;;;;17.01;31.72;102649.19;2078522;28;20405;-64
2022/01/11 04:07:13;;;;;;;13.52;8.23;;;;;;;16.98;32.18;102650.56;2085645;28;20041;-65
2022/01/11 04:08:17;;;;;;;10.80;7.25;;;;;;;16.96;31.79;102650.06;2085887;28;20521;-64
2022/01/11 04:09:25;;;;;;;13.88;7.63;;;;;;;16.98;31.90;102642.38;2086612;28;20520;-65
2022/01/11 04:10:28;;;;;;;10.67;6.63;;;;;;;16.99;31.62;102645.94;2087464;28;20049;-65
2022/01/11 04:11:37;;;;;;;15.68;5.07;;;;;;;17.01;31.75;102646.44;2087752;28;20702;-65
2022/01/11 04:12:40;;;;;;;8.57;4.97;;;;;;;17.03;31.93;102647.78;2079706;28;20494;-64
2022/01/11 04:13:45;;;;;;;12.27;6.80;;;;;;;17.06;31.78;102639.00;2087355;28;20535;-65
2022/01/11 04:14:49;;;;;;;11.98;7.15;;;;;;;17.00;31.57;102625.72;2087110;28;20068;-64
2022/01/11 04:15:53;;;;;;;1.60;1.50;;;;;;;17.06;31.52;102644.47;2079477;28;20053;-64
2022/01/11 04:16:57;;;;;;;7.13;2.90;;;;;;;17.06;31.90;102639.00;2079856;28;20052;-64
2022/01/11 04:18:03;;;;;;;11.52;7.82;;;;;;;17.05;31.87;102634.66;2079352;28;20064;-63
2022/01/11 04:19:09;;;;;;;11.02;5.78;;;;;;;17.07;31.88;102640.63;2087230;28;20572;-65
2022/01/11 04:20:14;;;;;;;16.60;10.00;;;;;;;17.06;31.52;102639.00;2079706;28;20046;-65
2022/01/11 04:21:19;;;;;;;15.23;7.93;;;;;;;17.07;31.42;102634.38;2086999;28;20057;-64
2022/01/11 04:22:28;;;;;;;11.82;6.78;;;;;;;17.04;31.83;102638.47;2087029;28;20049;-64
2022/01/11 04:23:33;;;;;;;14.65;6.75;;;;;;;17.10;31.55;102633.78;2079230;28;20060;-64
2022/01/11 04:24:42;;;;;;;8.27;4.70;;;;;;;17.16;31.60;102632.59;2079931;28;20050;-64
2022/01/11 04:25:47;;;;;;;6.93;3.60;;;;;;;17.22;31.65;102636.09;2080239;28;20441;-63
2022/01/11 04:26:50;;;;;;;11.18;6.20;;;;;;;17.21;31.54;102637.19;2087485;28;20048;-64
2022/01/11 04:27:55;;;;;;;10.68;6.18;;;;;;;17.24;31.55;102642.06;2078852;28;20810;-63
2022/01/11 04:29:02;;;;;;;11.65;6.63;;;;;;;17.23;31.69;102634.97;2079364;28;20049;-63
2022/01/11 04:30:11;;;;;;;10.32;6.35;;;;;;;17.22;31.61;102636.91;2086953;28;20439;-63
2022/01/11 04:31:16;;;;;;;10.70;5.68;;;;;;;17.28;31.43;102634.91;2087311;28;20067;-63
2022/01/11 04:32:20;;;;;;;11.90;5.47;;;;;;;17.31;31.39;102637.06;2087483;28;20056;-64
2022/01/11 04:33:26;;;;;;;3.97;2.38;;;;;;;17.31;31.53;102629.69;2079509;28;20057;-64
2022/01/11 04:34:31;;;;;;;3.00;2.80;;;;;;;17.28;31.53;102632.19;2080215;28;20432;-64
2022/01/11 04:35:37;;;;;;;2.85;2.58;;;;;;;17.25;31.52;102635.50;2087053;28;20037;-63
2022/01/11 04:36:40;;;;;;;10.30;6.75;;;;;;;17.22;31.49;102639.63;2087083;28;20049;-63
2022/01/11 04:37:44;;;;;;;16.60;10.38;;;;;;;17.19;31.51;102639.41;2087261;28;20065;-64
2022/01/11 04:38:49;;;;;;;8.85;4.28;;;;;;;17.16;31.65;102643.53;2087897;28;20445;-65
2022/01/11 04:39:55;;;;;;;2.85;2.20;;;;;;;17.09;31.66;102638.44;2087817;28;20057;-66
2022/01/11 04:41:01;;;;;;;2.92;1.80;;;;;;;17.08;31.64;102641.44;2079227;28;20060;-64
2022/01/11 04:42:10;;;;;;;10.88;6.35;;;;;;;17.04;31.66;102635.75;2080804;28;20548;-66
2022/01/11 04:43:16;;;;;;;8.63;5.85;;;;;;;16.91;31.90;102626.34;2079661;28;20072;-65
2022/01/11 04:44:24;;;;;;;8.43;5.93;;;;;;;16.99;31.85;102635.84;2080584;28;20046;-65
2022/01/11 04:45:29;;;;;;;9.45;6.05;;;;;;;17.02;31.75;102637.97;2079109;28;20060;-65
2022/01/11 04:46:33;;;;;;;5.47;4.03;;;;;;;17.16;31.91;102632.59;2079561;28;20072;-65
2022/01/11 04:47:38;;;;;;;0.38;0.22;;;;;;;17.27;31.81;102633.28;2079417;28;20064;-64
2022/01/11 04:48:42;;;;;;;0.65;0.20;;;;;;;17.35;31.69;102632.63;2079468;28;20061;-64
2022/01/11 04:49:47;;;;;;;0.10;0.10;;;;;;;17.42;31.55;102635.81;2078824;28;20068;-64
2022/01/11 04:50:50;;;;;;;0.55;0.55;;;;;;;17.45;31.53;102628.94;2087027;28;20052;-64
2022/01/11 04:51:56;;;;;;;1.50;1.10;;;;;;;17.50;31.35;102635.16;2087718;28;20488;-65
2022/01/11 04:52:59;;;;;;;0.43;0.40;;;;;;;17.54;31.49;102628.00;2087403;28;20718;-65
2022/01/11 04:54:04;;;;;;;0.88;0.65;;;;;;;17.64;31.06;102631.69;2087604;28;20176;-64
2022/01/11 04:55:13;;;;;;;9.77;6.60;;;;;;;17.73;31.24;102630.72;2079069;28;20049;-64
2022/01/11 04:56:16;;;;;;;10.52;6.88;;;;;;;17.79;31.01;102628.75;2087236;28;20112;-64
2022/01/11 04:57:21;;;;;;;14.32;9.38;;;;;;;17.79;30.94;102628.75;2086822;28;21023;-63
2022/01/11 04:58:26;;;;;;;12.15;7.05;;;;;;;17.74;30.74;102631.53;2087269;28;20052;-64
2022/01/11 04:59:34;;;;;;;12.52;7.40;;;;;;;17.64;30.85;102631.69;2086958;28;20056;-64
2022/01/11 05:00:37;;;;;;;12.40;6.50;;;;;;;17.60;30.61;102629.56;2071571;28;20056;-64
2022/01/11 05:01:42;;;;;;;10.60;6.57;;;;;;;17.55;30.93;102634.28;2079252;28;20493;-63
2022/01/11 05:02:48;;;;;;;11.68;6.43;;;;;;;17.47;31.16;102635.75;2087161;28;20064;-64
2022/01/11 05:03:53;;;;;;;14.48;8.95;;;;;;;17.49;31.46;102639.00;2078576;28;20064;-64
2022/01/11 05:04:58;;;;;;;17.02;9.75;;;;;;;17.48;31.39;102637.34;2086912;28;20055;-64
2022/01/11 05:06:06;;;;;;;14.65;9.00;;;;;;;17.49;31.20;102639.00;2079544;28;20049;-64
2022/01/11 05:07:11;;;;;;;14.80;9.98;;;;;;;17.47;31.26;102640.41;2087144;28;20041;-63
2022/01/11 05:08:19;;;;;;;16.08;8.10;;;;;;;17.47;31.34;102646.66;2079985;28;20556;-64
2022/01/11 05:09:24;;;;;;;8.15;5.07;;;;;;;17.41;31.03;102647.84;2079650;28;20113;-65
2022/01/11 05:10:31;;;;;;;6.20;4.22;;;;;;;17.41;31.52;102647.03;2079024;28;20049;-64
2022/01/11 05:11:34;;;;;;;14.68;10.35;;;;;;;17.36;31.53;102639.72;2079276;28;20057;-62
2022/01/11 05:12:40;;;;;;;13.57;9.50;;;;;;;17.33;31.83;102638.41;2078640;28;20064;-63
2022/01/11 05:13:43;;;;;;;15.73;10.27;;;;;;;17.31;31.84;102642.53;2079407;28;20053;-63
2022/01/11 05:15:04;;;;;;;13.02;9.57;;;;;;;17.33;31.70;102646.59;2081633;28;20056;-63
2022/01/11 05:16:09;;;;;;;14.45;9.70;;;;;;;17.32;31.77;102641.41;2078824;28;20424;-63
2022/01/11 05:17:14;;;;;;;12.05;8.98;;;;;;;17.35;31.54;102646.28;2086954;28;20831;-63
2022/01/11 05:18:17;;;;;;;15.00;9.80;;;;;;;17.34;31.74;102650.13;2078836;28;20057;-63
2022/01/11 05:19:23;;;;;;;15.20;9.98;;;;;;;17.33;31.62;102649.34;2079706;28;20053;-63
2022/01/11 05:20:30;;;;;;;13.25;9.00;;;;;;;17.29;31.55;102655.66;2079539;28;20065;-63
2022/01/11 05:21:37;;;;;;;13.77;9.18;;;;;;;17.27;31.90;102652.41;2079828;28;20057;-62